createdAt,value
2022-12-08T00:00:08.125Z,1.00
2022-12-08T00:08:05.150Z,1.40
2022-12-08T00:13:17.111Z,1.10
2022-12-08T00:27:58.078Z,1.30
2022-12-08T00:30:25.346Z,-1.00
2022-12-08T00:42:39.504Z,1.20
2022-12-08T00:45:06.946Z,1.20
2022-12-08T00:57:22.423Z,1.40
2022-12-08T01:04:46.352Z,1.40
2022-12-08T01:12:07.737Z,1.00
2022-12-08T01:14:34.397Z,1.30
2022-12-08T01:17:01.008Z,1.80
2022-12-08T01:21:55.108Z,1.80
2022-12-08T01:31:43.557Z,1.60
2022-12-08T01:34:10.833Z,1.60
2022-12-08T01:39:07.171Z,1.60
2022-12-08T01:41:35.660Z,1.60
2022-12-08T01:44:04.211Z,0.50
2022-12-08T01:46:32.355Z,1.60
2022-12-08T01:49:03.631Z,1.60
2022-12-08T01:51:34.172Z,1.60
2022-12-08T01:54:03.686Z,1.50
2022-12-08T01:56:37.067Z,1.50
2022-12-08T02:04:00.035Z,1.40
2022-12-08T02:06:28.082Z,1.30
2022-12-08T02:11:21.934Z,1.30
2022-12-08T02:13:51.693Z,1.20
2022-12-08T02:16:31.187Z,1.20
2022-12-08T02:19:30.244Z,1.20
2022-12-08T02:21:59.701Z,1.50
2022-12-08T02:24:32.459Z,1.10
2022-12-08T02:27:19.403Z,1.10
2022-12-08T02:30:07.513Z,1.30
2022-12-08T02:33:09.742Z,1.10
2022-12-08T02:35:44.533Z,1.10
2022-12-08T02:38:20.179Z,1.10
2022-12-08T02:40:54.106Z,1.10
2022-12-08T02:43:27.501Z,1.00
2022-12-08T02:45:59.894Z,1.00
2022-12-08T02:50:57.442Z,1.00
2022-12-08T02:56:01.937Z,1.00
2022-12-08T02:58:59.332Z,1.00
2022-12-08T03:01:40.607Z,1.00
2022-12-08T03:04:16.977Z,1.10
2022-12-08T03:06:53.862Z,1.10
2022-12-08T03:09:30.136Z,1.10
2022-12-08T03:12:02.937Z,1.10
2022-12-08T03:14:31.579Z,1.10
2022-12-08T03:19:28.380Z,1.10
2022-12-08T03:22:02.260Z,1.20
2022-12-08T03:24:31.042Z,1.20
2022-12-08T03:27:01.448Z,1.20
2022-12-08T03:31:58.724Z,1.50
2022-12-08T03:34:27.775Z,1.20
2022-12-08T03:39:22.091Z,1.20
2022-12-08T03:56:37.639Z,1.10
2022-12-08T04:06:25.984Z,1.00
2022-12-08T04:08:54.258Z,1.20
2022-12-08T04:13:50.111Z,1.20
2022-12-08T04:16:18.401Z,1.10
2022-12-08T04:23:41.736Z,1.40
2022-12-08T04:28:35.576Z,1.20
2022-12-08T04:31:04.582Z,1.20
2022-12-08T04:40:52.793Z,1.60
2022-12-08T04:43:19.958Z,1.30
2022-12-08T04:48:14.797Z,1.30
2022-12-08T04:50:43.183Z,1.00
2022-12-08T04:53:13.418Z,1.20
2022-12-08T04:55:43.069Z,1.20
2022-12-08T04:58:12.434Z,1.30
2022-12-08T05:05:33.625Z,1.30
2022-12-08T05:08:00.267Z,1.50
2022-12-08T05:12:53.982Z,1.30
2022-12-08T05:15:20.598Z,1.40
2022-12-08T05:17:48.708Z,1.20
2022-12-08T05:20:15.337Z,1.40
2022-12-08T05:22:42.862Z,1.20
2022-12-08T05:30:05.526Z,1.50
2022-12-08T05:32:32.340Z,1.50
2022-12-08T05:37:28.284Z,1.60
2022-12-08T05:39:55.765Z,1.70
2022-12-08T05:42:24.982Z,2.20
2022-12-08T05:44:51.923Z,1.40
2022-12-08T05:47:18.798Z,1.70
2022-12-08T05:49:45.459Z,1.90
2022-12-08T05:52:12.037Z,1.90
2022-12-08T05:54:39.042Z,2.00
2022-12-08T05:57:07.907Z,1.90
2022-12-08T05:59:34.743Z,1.80
2022-12-08T06:02:02.738Z,1.70
2022-12-08T06:04:29.364Z,2.00
2022-12-08T06:09:26.649Z,1.90
2022-12-08T06:11:53.266Z,1.80
2022-12-08T06:14:20.563Z,2.00
2022-12-08T06:19:15.113Z,2.10
2022-12-08T06:24:13.238Z,1.90
2022-12-08T06:26:40.741Z,1.80
2022-12-08T06:29:07.443Z,1.70
2022-12-08T06:31:34.740Z,1.80
2022-12-08T06:34:03.084Z,2.00
2022-12-08T06:36:29.672Z,2.10
2022-12-08T06:38:56.852Z,2.10
2022-12-08T06:41:24.749Z,2.10
2022-12-08T06:43:51.438Z,2.10
2022-12-08T06:46:19.438Z,2.00
2022-12-08T06:48:47.241Z,1.90
2022-12-08T06:51:18.819Z,2.00
2022-12-08T06:53:46.592Z,2.00
2022-12-08T06:56:15.085Z,2.10
2022-12-08T06:58:41.898Z,1.90
2022-12-08T07:01:10.366Z,1.90
2022-12-08T07:03:39.962Z,1.90
2022-12-08T07:06:07.682Z,2.00
2022-12-08T07:08:34.749Z,2.00
2022-12-08T07:11:07.361Z,2.00
2022-12-08T07:16:00.841Z,2.20
2022-12-08T07:18:27.386Z,2.10
2022-12-08T07:20:53.962Z,2.30
2022-12-08T07:23:21.223Z,2.70
2022-12-08T07:25:47.831Z,2.40
2022-12-08T07:28:14.944Z,2.40
2022-12-08T07:30:41.573Z,2.30
2022-12-08T07:33:08.214Z,2.20
2022-12-08T07:38:02.279Z,2.50
2022-12-08T07:40:29.568Z,2.40
2022-12-08T07:42:56.136Z,2.40
2022-12-08T07:45:26.926Z,2.50
2022-12-08T07:47:57.760Z,2.20
2022-12-08T07:50:24.297Z,2.50
2022-12-08T07:55:17.845Z,2.30
2022-12-08T07:57:45.067Z,2.40
2022-12-08T08:00:12.818Z,2.50
2022-12-08T08:05:07.345Z,2.50
2022-12-08T08:07:34.037Z,2.50
2022-12-08T08:10:00.688Z,2.60
2022-12-08T08:12:32.117Z,2.50
2022-12-08T08:15:00.598Z,2.60
2022-12-08T08:17:27.581Z,2.70
2022-12-08T08:19:54.249Z,2.80
2022-12-08T08:27:15.504Z,2.80
2022-12-08T08:32:09.715Z,2.80
2022-12-08T08:34:36.424Z,2.80
2022-12-08T08:44:24.616Z,2.70
2022-12-08T08:46:51.201Z,2.70
2022-12-08T08:49:20.628Z,2.90
2022-12-08T08:51:47.605Z,3.00
2022-12-08T08:54:14.440Z,3.00
2022-12-08T09:01:35.043Z,3.00
2022-12-08T09:06:29.482Z,3.20
2022-12-08T09:08:56.179Z,3.50
2022-12-08T09:13:51.506Z,3.30
2022-12-08T09:16:19.905Z,4.00
2022-12-08T09:18:47.576Z,3.80
2022-12-08T09:21:19.603Z,3.50
2022-12-08T09:23:46.860Z,3.90
2022-12-08T09:26:13.491Z,4.00
2022-12-08T09:28:45.533Z,4.00
2022-12-08T09:31:12.886Z,4.70
2022-12-08T09:33:39.596Z,4.30
2022-12-08T09:36:07.065Z,4.30
2022-12-08T09:41:04.096Z,4.00
2022-12-08T09:43:55.668Z,3.80
2022-12-08T09:46:23.170Z,3.90
2022-12-08T09:48:54.850Z,4.00
2022-12-08T09:51:24.564Z,4.30
2022-12-08T09:53:54.582Z,4.00
2022-12-08T09:56:24.330Z,4.00
2022-12-08T09:58:55.959Z,4.10
2022-12-08T10:01:32.626Z,4.40
2022-12-08T10:03:59.996Z,4.30
2022-12-08T10:06:31.458Z,4.30
2022-12-08T10:09:11.124Z,4.00
2022-12-08T10:11:45.656Z,4.30
2022-12-08T10:14:21.095Z,4.40
2022-12-08T10:16:52.208Z,4.50
2022-12-08T10:19:21.580Z,4.40
2022-12-08T10:21:51.309Z,4.50
2022-12-08T10:24:23.138Z,4.70
2022-12-08T10:26:50.513Z,4.40
2022-12-08T10:31:44.870Z,4.40
2022-12-08T10:34:17.743Z,4.30
2022-12-08T10:36:46.080Z,4.20
2022-12-08T10:39:36.783Z,4.10
2022-12-08T10:42:15.404Z,4.10
2022-12-08T10:44:54.483Z,4.10
2022-12-08T10:47:25.009Z,4.10
2022-12-08T10:50:09.288Z,4.40
2022-12-08T10:52:38.861Z,4.30
2022-12-08T10:55:14.715Z,4.10
2022-12-08T10:57:42.103Z,4.10
2022-12-08T11:00:14.562Z,4.20
2022-12-08T11:02:57.010Z,4.30
2022-12-08T11:05:27.813Z,4.00
2022-12-08T11:07:55.417Z,4.30
2022-12-08T11:10:31.411Z,3.70
2022-12-08T11:13:11.932Z,3.90
2022-12-08T11:15:40.798Z,3.90
2022-12-08T11:18:20.715Z,4.20
2022-12-08T11:23:22.038Z,3.80
2022-12-08T11:25:49.431Z,4.00
2022-12-08T11:28:22.626Z,3.80
2022-12-08T11:30:54.144Z,3.70
2022-12-08T11:33:23.603Z,3.80
2022-12-08T11:35:54.020Z,3.70
2022-12-08T11:38:23.192Z,3.70
2022-12-08T11:40:54.573Z,3.80
2022-12-08T11:43:30.426Z,3.70
2022-12-08T11:46:02.529Z,3.90
2022-12-08T11:48:35.355Z,3.80
2022-12-08T11:51:07.156Z,3.80
2022-12-08T11:53:38.754Z,3.90
2022-12-08T11:56:12.694Z,3.80
2022-12-08T11:58:44.658Z,3.80
2022-12-08T12:01:18.886Z,6.60
2022-12-08T12:03:51.703Z,3.90
2022-12-08T12:09:28.434Z,4.00
2022-12-08T12:12:16.029Z,3.60
2022-12-08T12:15:26.636Z,3.90
2022-12-08T12:17:57.363Z,4.20
2022-12-08T12:20:27.855Z,4.00
2022-12-08T12:22:59.460Z,4.00
2022-12-08T12:25:27.145Z,3.90
2022-12-08T12:27:59.732Z,4.20
2022-12-08T12:30:30.524Z,4.10
2022-12-08T12:33:00.103Z,4.00
2022-12-08T12:35:32.810Z,3.80
2022-12-08T12:38:04.474Z,4.10
2022-12-08T12:40:40.525Z,3.80
2022-12-08T12:43:24.718Z,3.90
2022-12-08T12:46:44.790Z,3.90
2022-12-08T12:49:48.006Z,4.00
2022-12-08T12:52:40.068Z,3.90
2022-12-08T12:55:49.798Z,4.00
2022-12-08T12:58:33.278Z,3.90
2022-12-08T13:01:33.345Z,4.00
2022-12-08T13:04:06.573Z,4.10
2022-12-08T13:06:39.026Z,4.20
2022-12-08T13:09:06.591Z,4.10
2022-12-08T13:11:47.994Z,4.00
2022-12-08T13:14:28.735Z,4.10
2022-12-08T13:16:57.541Z,4.40
2022-12-08T13:19:25.394Z,3.90
2022-12-08T13:24:30.514Z,4.60
2022-12-08T13:27:33.759Z,3.90
2022-12-08T13:30:36.716Z,3.90
2022-12-08T13:33:17.624Z,3.90
2022-12-08T13:35:51.063Z,3.90
2022-12-08T13:38:22.007Z,3.90
2022-12-08T13:40:50.099Z,3.90
2022-12-08T13:43:38.817Z,3.80
2022-12-08T13:50:47.896Z,4.00
2022-12-08T13:56:16.744Z,3.80
2022-12-08T13:57:32.807Z,4.10
2022-12-08T14:00:00.937Z,3.80
2022-12-08T14:02:32.697Z,3.90
2022-12-08T14:07:50.892Z,3.80
2022-12-08T14:10:21.861Z,3.80
2022-12-08T14:12:56.124Z,3.80
2022-12-08T14:15:25.042Z,3.70
2022-12-08T14:17:53.126Z,3.70
2022-12-08T14:20:24.617Z,3.80
2022-12-08T14:22:52.325Z,3.70
2022-12-08T14:25:20.652Z,2.50
2022-12-08T14:27:48.575Z,3.60
2022-12-08T14:30:21.103Z,3.70
2022-12-08T14:32:49.848Z,3.60
2022-12-08T14:35:22.493Z,3.60
2022-12-08T14:37:52.581Z,3.60
2022-12-08T14:40:24.153Z,3.70
2022-12-08T14:42:52.881Z,3.50
2022-12-08T14:45:20.297Z,3.50
2022-12-08T14:47:47.811Z,3.50
2022-12-08T14:50:38.514Z,3.60
2022-12-08T14:53:12.541Z,3.30
2022-12-08T14:55:39.521Z,3.60
2022-12-08T14:58:06.435Z,3.30
2022-12-08T15:00:33.751Z,3.20
2022-12-08T15:03:06.552Z,3.30
2022-12-08T15:05:33.626Z,3.70
2022-12-08T15:08:04.441Z,3.50
2022-12-08T15:10:37.282Z,3.60
2022-12-08T15:13:22.093Z,3.50
2022-12-08T15:15:51.169Z,3.30
2022-12-08T15:18:34.904Z,3.40
2022-12-08T15:21:04.330Z,3.40
2022-12-08T15:23:38.751Z,3.50
2022-12-08T15:26:06.216Z,3.40
2022-12-08T15:28:32.898Z,3.40
2022-12-08T15:30:59.910Z,3.30
2022-12-08T15:33:27.075Z,3.60
2022-12-08T15:35:53.825Z,3.50
2022-12-08T15:38:23.995Z,3.30
2022-12-08T15:40:51.917Z,3.20
2022-12-08T15:43:19.165Z,3.40
2022-12-08T15:45:57.964Z,3.10
2022-12-08T15:48:28.023Z,3.10
2022-12-08T15:50:55.739Z,3.40
2022-12-08T15:53:22.789Z,3.90
2022-12-08T15:56:25.202Z,3.40
2022-12-08T15:58:54.814Z,3.70
2022-12-08T16:01:24.969Z,3.20
2022-12-08T16:09:32.096Z,3.00
2022-12-08T16:17:36.012Z,3.10
2022-12-08T16:20:04.344Z,3.00
2022-12-08T16:25:22.311Z,2.90
2022-12-08T16:28:29.424Z,3.20
2022-12-08T16:30:38.985Z,3.00
2022-12-08T16:33:06.125Z,2.90
2022-12-08T16:35:32.926Z,2.80
2022-12-08T16:37:59.933Z,2.80
2022-12-08T16:45:24.963Z,2.80
2022-12-08T16:47:54.726Z,3.00
2022-12-08T16:50:23.602Z,2.80
2022-12-08T16:52:55.526Z,2.60
2022-12-08T16:55:22.288Z,2.90
2022-12-08T17:00:22.519Z,2.60
2022-12-08T17:02:51.429Z,2.60
2022-12-08T17:05:21.016Z,2.70
2022-12-08T17:07:49.866Z,2.60
2022-12-08T17:10:18.552Z,2.70
2022-12-08T17:12:45.458Z,2.60
2022-12-08T17:15:15.937Z,2.40
2022-12-08T17:17:42.668Z,2.60
2022-12-08T17:20:14.395Z,2.50
2022-12-08T17:22:41.962Z,2.60
2022-12-08T17:25:09.208Z,2.40
2022-12-08T17:27:36.309Z,2.40
2022-12-08T17:30:04.361Z,2.30
2022-12-08T17:34:58.241Z,1.60
2022-12-08T17:37:25.488Z,2.60
2022-12-08T17:39:53.176Z,2.40
2022-12-08T17:42:25.080Z,2.20
2022-12-08T17:44:51.793Z,2.40
2022-12-08T17:49:46.879Z,2.30
2022-12-08T17:52:15.375Z,2.30
2022-12-08T17:57:09.728Z,2.20
2022-12-08T18:02:05.559Z,2.10
2022-12-08T18:09:30.383Z,2.10
2022-12-08T18:11:57.088Z,2.10
2022-12-08T18:14:24.394Z,2.00
2022-12-08T18:16:51.067Z,2.10
2022-12-08T18:19:17.894Z,1.70
2022-12-08T18:21:44.637Z,1.90
2022-12-08T18:24:16.958Z,1.70
2022-12-08T18:26:43.558Z,1.80
2022-12-08T18:31:37.837Z,1.80
2022-12-08T18:36:31.626Z,1.70
2022-12-08T18:38:58.337Z,1.60
2022-12-08T18:41:25.882Z,1.80
2022-12-08T18:43:53.035Z,1.60
2022-12-08T18:46:20.029Z,1.60
2022-12-08T18:48:48.948Z,1.50
2022-12-08T18:51:18.403Z,1.50
2022-12-08T18:53:45.938Z,1.50
2022-12-08T18:56:22.190Z,1.50
2022-12-08T18:58:49.000Z,1.40
2022-12-08T19:01:17.212Z,1.30
2022-12-08T19:06:32.200Z,1.50
2022-12-08T19:11:28.544Z,1.50
2022-12-08T19:13:58.517Z,1.40
2022-12-08T19:16:25.179Z,1.40
2022-12-08T19:23:46.953Z,1.50
2022-12-08T19:31:09.068Z,1.90
2022-12-08T19:33:36.908Z,1.80
2022-12-08T19:36:06.383Z,1.90
2022-12-08T19:38:53.514Z,1.80
2022-12-08T19:41:41.187Z,2.00
2022-12-08T19:44:35.347Z,1.90
2022-12-08T19:47:02.694Z,2.00
2022-12-08T19:49:29.396Z,2.00
2022-12-08T19:51:56.260Z,1.90
2022-12-08T19:54:23.436Z,2.20
2022-12-08T19:56:50.817Z,2.00
2022-12-08T19:59:18.669Z,2.10
2022-12-08T20:01:47.354Z,1.90
2022-12-08T20:04:15.406Z,1.90
2022-12-08T20:06:43.221Z,2.00
2022-12-08T20:09:10.381Z,2.00
2022-12-08T20:11:37.105Z,1.60
2022-12-08T20:14:04.482Z,1.90
2022-12-08T20:16:32.024Z,1.50
2022-12-08T20:18:58.819Z,1.70
2022-12-08T20:21:25.621Z,1.30
2022-12-08T20:26:21.320Z,1.50
2022-12-08T20:28:51.145Z,1.50
2022-12-08T20:31:34.593Z,1.40
2022-12-08T20:36:33.451Z,1.00
2022-12-08T20:39:00.566Z,1.30
2022-12-08T20:43:54.515Z,1.30
2022-12-08T20:46:22.028Z,1.10
2022-12-08T20:51:17.139Z,1.00
2022-12-08T20:53:44.974Z,0.90
2022-12-08T20:56:16.300Z,0.90
2022-12-08T21:01:11.412Z,0.90
2022-12-08T21:03:39.765Z,0.90
2022-12-08T21:20:52.221Z,0.80
2022-12-08T21:23:18.943Z,0.70
2022-12-08T21:25:46.961Z,0.70
2022-12-08T21:30:42.426Z,0.80
2022-12-08T21:35:36.660Z,0.90
2022-12-08T21:38:06.122Z,0.90
2022-12-08T21:40:42.876Z,0.70
2022-12-08T21:53:05.979Z,0.60
2022-12-08T22:10:20.410Z,0.40
2022-12-08T22:17:43.361Z,0.40
2022-12-08T22:20:12.541Z,0.40
2022-12-08T22:22:39.982Z,0.30
2022-12-08T22:25:10.150Z,0.50
2022-12-08T22:27:39.322Z,0.40
2022-12-08T22:30:07.636Z,0.40
2022-12-08T22:42:27.683Z,-0.10
2022-12-08T23:02:07.483Z,-0.10
2022-12-08T23:19:18.387Z,-0.30
2022-12-08T23:36:28.159Z,-0.50
2022-12-08T23:43:51.876Z,-0.50
2022-12-08T23:46:20.422Z,-0.50
2022-12-08T23:51:16.354Z,-0.60
2022-12-08T23:53:44.079Z,-0.50
2022-12-08T23:56:12.672Z,-0.50
